Map

Track Data

SID SEASON NUMBER BASIN SUBBASIN NAME ISO_TIME NATURE LAT LON WMO_WIND WMO_PRES WMO_AGENCY TRACK_TYPE DIST2LAND LANDFALL IFLAG USA_AGENCY USA_ATCF_ID USA_LAT USA_LON USA_RECORD USA_STATUS USA_WIND USA_PRES USA_SSHS USA_R34_NE USA_R34_SE USA_R34_SW USA_R34_NW USA_R50_NE USA_R50_SE USA_R50_SW USA_R50_NW USA_R64_NE USA_R64_SE USA_R64_SW USA_R64_NW USA_POCI USA_ROCI USA_RMW USA_EYE TOKYO_LAT TOKYO_LON TOKYO_GRADE TOKYO_WIND TOKYO_PRES TOKYO_R50_DIR TOKYO_R50_LONG TOKYO_R50_SHORT TOKYO_R30_DIR TOKYO_R30_LONG TOKYO_R30_SHORT TOKYO_LAND CMA_LAT CMA_LON CMA_CAT CMA_WIND CMA_PRES HKO_LAT HKO_LON HKO_CAT HKO_WIND HKO_PRES NEWDELHI_LAT NEWDELHI_LON NEWDELHI_GRADE NEWDELHI_WIND NEWDELHI_PRES NEWDELHI_CI NEWDELHI_DP NEWDELHI_POCI REUNION_LAT REUNION_LON REUNION_TYPE REUNION_WIND REUNION_PRES REUNION_TNUM REUNION_CI REUNION_RMW REUNION_R34_NE REUNION_R34_SE REUNION_R34_SW REUNION_R34_NW REUNION_R50_NE REUNION_R50_SE REUNION_R50_SW REUNION_R50_NW REUNION_R64_NE REUNION_R64_SE REUNION_R64_SW REUNION_R64_NW BOM_LAT BOM_LON BOM_TYPE BOM_WIND BOM_PRES BOM_TNUM BOM_CI BOM_RMW BOM_R34_NE BOM_R34_SE BOM_R34_SW BOM_R34_NW BOM_R50_NE BOM_R50_SE BOM_R50_SW BOM_R50_NW BOM_R64_NE BOM_R64_SE BOM_R64_SW BOM_R64_NW BOM_ROCI BOM_POCI BOM_EYE BOM_POS_METHOD BOM_PRES_METHOD NADI_LAT NADI_LON NADI_CAT NADI_WIND NADI_PRES WELLINGTON_LAT WELLINGTON_LON WELLINGTON_WIND WELLINGTON_PRES DS824_LAT DS824_LON DS824_STAGE DS824_WIND DS824_PRES TD9636_LAT TD9636_LON TD9636_STAGE TD9636_WIND TD9636_PRES TD9635_LAT TD9635_LON TD9635_WIND TD9635_PRES TD9635_ROCI NEUMANN_LAT NEUMANN_LON NEUMANN_CLASS NEUMANN_WIND NEUMANN_PRES MLC_LAT MLC_LON MLC_CLASS MLC_WIND MLC_PRES USA_GUST BOM_GUST BOM_GUST_PER REUNION_GUST REUNION_GUST_PER USA_SEAHGT USA_SEARAD_NE USA_SEARAD_SE USA_SEARAD_SW USA_SEARAD_NW STORM_SPEED STORM_DIR
1895311N09136 1895 47 WP MM NOT_NAMED 1895-11-06 16:00:00 NR 8.60000 135.600 main 996 986 __________O___ -1 8.60000 135.600 7 3 324
1895311N09136 1895 47 WP MM NOT_NAMED 1895-11-06 18:00:00 NR 8.68443 135.545 main 986 986 __________P___ -1 8.68443 135.545 7 3 327
1895311N09136 1895 47 WP MM NOT_NAMED 1895-11-06 21:00:00 NR 8.81065 135.464 main 987 977 __________P___ -1 8.81065 135.464 7 3 329
1895311N09136 1895 47 WP MM NOT_NAMED 1895-11-07 00:00:00 NR 8.93582 135.388 main 978 968 __________P___ -1 8.93582 135.388 7 3 330
1895311N09136 1895 47 WP MM NOT_NAMED 1895-11-07 03:00:00 NR 9.05931 135.320 main 970 970 __________P___ -1 9.05931 135.320 7 3 332
1895311N09136 1895 47 WP MM NOT_NAMED 1895-11-07 04:00:00 NR 9.10000 135.300 main 970 970 __________O___ -1 9.10000 135.300 7 3 338
1895311N09136 1895 47 WP MM NOT_NAMED 1895-11-07 06:00:00 NR 9.18070 135.264 main 972 961 __________P___ -1 9.18070 135.264 7 3 339
1895311N09136 1895 47 WP MM NOT_NAMED 1895-11-07 09:00:00 NR 9.30170 135.215 main 963 963 __________P___ -1 9.30170 135.215 7 3 339
1895311N09136 1895 47 WP MM NOT_NAMED 1895-11-07 12:00:00 NR 9.42542 135.169 main 965 956 __________P___ -1 9.42542 135.169 7 3 339
1895311N09136 1895 47 WP MM NOT_NAMED 1895-11-07 15:00:00 NR 9.55498 135.119 main 959 959 __________P___ -1 9.55498 135.119 7 3 340
1895311N09136 1895 47 WP MM NOT_NAMED 1895-11-07 16:00:00 NR 9.60000 135.100 main 959 959 __________O___ -1 9.60000 135.100 7 3 334
1895311N09136 1895 47 WP MM NOT_NAMED 1895-11-07 18:00:00 NR 9.70217 135.051 main 961 950 __________P___ -1 9.70217 135.051 7 4 333
1895311N09136 1895 47 WP MM NOT_NAMED 1895-11-07 21:00:00 NR 9.86190 134.970 main 956 945 __________P___ -1 9.86190 134.970 7 4 333
1895311N09136 1895 47 WP MM NOT_NAMED 1895-11-08 00:00:00 NR 10.0183 134.890 main 948 940 __________P___ -1 10.0183 134.890 7 3 334
1895311N09136 1895 47 WP MM NOT_NAMED 1895-11-08 03:00:00 NR 10.1588 134.820 main 943 943 __________P___ -1 10.1588 134.820 7 3 334
1895311N09136 1895 47 WP MM NOT_NAMED 1895-11-08 04:00:00 NR 10.2000 134.800 main 943 943 __________O___ -1 10.2000 134.800 7 2 339
1895311N09136 1895 47 WP MM NOT_NAMED 1895-11-08 06:00:00 NR 10.2566 134.772 main 947 936 __________P___ -1 10.2566 134.772 7 2 333
1895311N09136 1895 47 WP MM NOT_NAMED 1895-11-08 09:00:00 NR 10.3224 134.742 main 936 936 __________P___ -1 10.3224 134.742 7 1 339
1895311N09136 1895 47 WP MM NOT_NAMED 1895-11-08 12:00:00 NR 10.3847 134.722 main 938 938 __________P___ -1 10.3847 134.722 7 1 345
1895311N09136 1895 47 WP MM NOT_NAMED 1895-11-08 15:00:00 NR 10.4653 134.706 main 941 941 __________P___ -1 10.4653 134.706 7 2 0
1895311N09136 1895 47 WP MM NOT_NAMED 1895-11-08 16:00:00 NR 10.5000 134.700 main 941 941 __________O___ -1 10.5000 134.700 7 3 354
1895311N09136 1895 47 WP MM NOT_NAMED 1895-11-08 18:00:00 NR 10.6017 134.681 main 943 943 __________P___ -1 10.6017 134.681 7 3 352
1895311N09136 1895 47 WP MM NOT_NAMED 1895-11-08 21:00:00 NR 10.7797 134.652 main 947 937 __________P___ -1 10.7797 134.652 7 4 351
1895311N09136 1895 47 WP MM NOT_NAMED 1895-11-09 00:00:00 NR 10.9686 134.625 main 942 942 __________P___ -1 10.9686 134.625 7 4 354
1895311N09136 1895 47 WP MM NOT_NAMED 1895-11-09 03:00:00 NR 11.1468 134.605 main 944 946 __________P___ -1 11.1468 134.605 7 4 0
1895311N09136 1895 47 WP MM NOT_NAMED 1895-11-09 04:00:00 NR 11.2000 134.600 main 946 946 __________O___ -1 11.2000 134.600 7 3 350
1895311N09136 1895 47 WP MM NOT_NAMED 1895-11-09 06:00:00 NR 11.2759 134.594 main 949 949 __________P___ -1 11.2759 134.594 7 2 352
1895311N09136 1895 47 WP MM NOT_NAMED 1895-11-09 09:00:00 NR 11.3707 134.592 main 952 952 __________P___ -1 11.3707 134.592 7 2 0
1895311N09136 1895 47 WP MM NOT_NAMED 1895-11-09 12:00:00 NR 11.4593 134.595 main 954 954 __________P___ -1 11.4593 134.595 7 2 2
1895311N09136 1895 47 WP MM NOT_NAMED 1895-11-09 15:00:00 NR 11.5603 134.599 main 957 957 __________P___ -1 11.5603 134.599 7 2 9
1895311N09136 1895 47 WP MM NOT_NAMED 1895-11-09 16:00:00 NR 11.6000 134.600 main 957 957 __________O___ -1 11.6000 134.600 7 3 354
1895311N09136 1895 47 WP MM NOT_NAMED 1895-11-09 18:00:00 NR 11.7074 134.597 main 960 960 __________P___ -1 11.7074 134.597 7 3 357
1895311N09136 1895 47 WP MM NOT_NAMED 1895-11-09 21:00:00 NR 11.8876 134.593 main 964 964 __________P___ -1 11.8876 134.593 7 4 358
1895311N09136 1895 47 WP MM NOT_NAMED 1895-11-10 00:00:00 NR 12.0741 134.592 main 967 967 __________P___ -1 12.0741 134.592 7 4 1
1895311N09136 1895 47 WP MM NOT_NAMED 1895-11-10 03:00:00 NR 12.2480 134.597 main 968 969 __________P___ -1 12.2480 134.597 7 3 6
1895311N09136 1895 47 WP MM NOT_NAMED 1895-11-10 04:00:00 NR 12.3000 134.600 main 969 969 __________O___ -1 12.3000 134.600 7 3 0
1895311N09136 1895 47 WP MM NOT_NAMED 1895-11-10 06:00:00 NR 12.3759 134.606 main 971 971 __________P___ -1 12.3759 134.606 7 2 8
1895311N09136 1895 47 WP MM NOT_NAMED 1895-11-10 09:00:00 NR 12.4707 134.621 main 973 973 __________P___ -1 12.4707 134.621 7 2 9
1895311N09136 1895 47 WP MM NOT_NAMED 1895-11-10 12:00:00 NR 12.5592 134.646 main 975 975 __________P___ -1 12.5592 134.646 7 2 17
1895311N09136 1895 47 WP MM NOT_NAMED 1895-11-10 15:00:00 NR 12.6603 134.684 main 987 987 __________P___ -1 12.6603 134.684 7 2 23
1895311N09136 1895 47 WP MM NOT_NAMED 1895-11-10 16:00:00 NR 12.7000 134.700 main 987 987 __________O___ -1 12.7000 134.700 7 3 22
1895311N09136 1895 47 WP MM NOT_NAMED 1895-11-10 18:00:00 NR 12.8022 134.736 main 989 989 __________P___ -1 12.8022 134.736 7 4 19
1895311N09136 1895 47 WP MM NOT_NAMED 1895-11-10 21:00:00 NR 12.9744 134.802 main 1004 1004 __________P___ -1 12.9744 134.802 7 4 22
1895311N09136 1895 47 WP MM NOT_NAMED 1895-11-11 00:00:00 NR 13.1583 134.881 main 1020 1020 __________P___ -1 13.1583 134.881 7 4 24
1895311N09136 1895 47 WP MM NOT_NAMED 1895-11-11 03:00:00 NR 13.3413 134.969 main 1033 1035 __________P___ -1 13.3413 134.969 7 4 26
1895311N09136 1895 47 WP MM NOT_NAMED 1895-11-11 04:00:00 NR 13.4000 135.000 main 1035 1035 __________O___ -1 13.4000 135.000 7 4 28
1895311N09136 1895 47 WP MM NOT_NAMED 1895-11-11 06:00:00 NR 13.5057 135.058 main 1049 1049 __________P___ -1 13.5057 135.058 7 4 30
1895311N09136 1895 47 WP MM NOT_NAMED 1895-11-11 09:00:00 NR 13.6579 135.152 main 1065 1065 __________P___ -1 13.6579 135.152 7 4 32
1895311N09136 1895 47 WP MM NOT_NAMED 1895-11-11 12:00:00 NR 13.8054 135.253 main 1077 1077 __________P___ -1 13.8054 135.253 7 4 35
1895311N09136 1895 47 WP MM NOT_NAMED 1895-11-11 15:00:00 NR 13.9512 135.362 main 1091 1091 __________P___ -1 13.9512 135.362 7 4 36
1895311N09136 1895 47 WP MM NOT_NAMED 1895-11-11 16:00:00 NR 14.0000 135.400 main 1091 1091 __________O___ -1 14.0000 135.400 7 4 38
1895311N09136 1895 47 WP MM NOT_NAMED 1895-11-11 18:00:00 NR 14.0974 135.475 main 1103 1103 __________P___ -1 14.0974 135.475 7 4 38
1895311N09136 1895 47 WP MM NOT_NAMED 1895-11-11 21:00:00 NR 14.2434 135.594 main 1116 1118 __________P___ -1 14.2434 135.594 7 4 39
1895311N09136 1895 47 WP MM NOT_NAMED 1895-11-12 00:00:00 NR 14.3921 135.720 main 1131 1131 __________P___ -1 14.3921 135.720 7 4 40
1895311N09136 1895 47 WP MM NOT_NAMED 1895-11-12 03:00:00 NR 14.5466 135.854 main 1154 1157 __________P___ -1 14.5466 135.854 7 4 40
1895311N09136 1895 47 WP MM NOT_NAMED 1895-11-12 04:00:00 NR 14.6000 135.900 main 1157 1157 __________O___ -1 14.6000 135.900 7 4 37
1895311N09136 1895 47 WP MM NOT_NAMED 1895-11-12 06:00:00 NR 14.7188 135.992 main 1169 1169 __________P___ -1 14.7188 135.992 7 5 37
1895311N09136 1895 47 WP MM NOT_NAMED 1895-11-12 09:00:00 NR 14.9035 136.135 main 1185 1185 __________P___ -1 14.9035 136.135 7 5 38
1895311N09136 1895 47 WP MM NOT_NAMED 1895-11-12 12:00:00 NR 15.0849 136.287 main 1211 1211 __________P___ -1 15.0849 136.287 7 5 41
1895311N09136 1895 47 WP MM NOT_NAMED 1895-11-12 15:00:00 NR 15.2505 136.445 main 1227 1238 __________P___ -1 15.2505 136.445 7 4 44
1895311N09136 1895 47 WP MM NOT_NAMED 1895-11-12 16:00:00 NR 15.3000 136.500 main 1238 1238 __________O___ -1 15.3000 136.500 7 4 49
1895311N09136 1895 47 WP MM NOT_NAMED 1895-11-12 18:00:00 NR 15.3888 136.612 main 1251 1251 __________P___ -1 15.3888 136.612 7 4 54
1895311N09136 1895 47 WP MM NOT_NAMED 1895-11-12 21:00:00 NR 15.5001 136.784 main 1275 1275 __________P___ -1 15.5001 136.784 7 4 59
1895311N09136 1895 47 WP MM NOT_NAMED 1895-11-13 00:00:00 NR 15.5925 136.961 main 1298 1298 __________P___ -1 15.5925 136.961 7 4 63
1895311N09136 1895 47 WP MM NOT_NAMED 1895-11-13 03:00:00 NR 15.6739 137.140 main 1312 1312 __________P___ -1 15.6739 137.140 7 4 65
1895311N09136 1895 47 WP MM NOT_NAMED 1895-11-13 04:00:00 NR 15.7000 137.200 main 1322 __________O___ -1 15.7000 137.200 7 4 62

Digital Typhoon Data and Search

About IBTrACS Database

This database is a web-friendly format of International Best Track Archive for Climate Stewardship (IBTrACS), a global best track data archive curated by NOAA dating back to 1842.

Updated: 2021-10-21